Hidden Valley, California
Current Conditions -  °F | °C
As of 8:55 PM on Saturday 20 Dec 2014 (Local Time) from KCMA Reporting Station
Clear Clear  
Wind Chill: 58°   Ceiling: Unl
Heat Index: 58°   Visibility: 10mi
Dew Point: 52°   Wind: 3mph
Humidity: 81%   Direction: 340°NNW
Pressure: 30.12"   Gusts: NA
Location:  34.1434°N, 118.876°W
Report Text: KCMA 210455Z 34003KT 10SM CLR 14/11 A3012 RMK AO2 SLP207 T01440111
Loading
Personal Weather Stations






























Interactive Weather Map New forecast layout! Learn more

10-Day Weather Forecast

Advertisements
Track Severe Weather on mobile